sensor_id;sensor_type;location;lat;lon;timestamp;temperature;humidity
77056;SHT30;67471;44.918;8.614;2023-07-30T00:00:41;24.84;71.26
77056;SHT30;67471;44.918;8.614;2023-07-30T00:03:44;24.92;71.81
77056;SHT30;67471;44.918;8.614;2023-07-30T00:06:48;25.06;71.36
77056;SHT30;67471;44.918;8.614;2023-07-30T00:09:52;25.06;71.63
77056;SHT30;67471;44.918;8.614;2023-07-30T00:12:56;25.13;71.43
77056;SHT30;67471;44.918;8.614;2023-07-30T00:15:59;25.16;71.04
77056;SHT30;67471;44.918;8.614;2023-07-30T00:19:06;25.18;70.73
77056;SHT30;67471;44.918;8.614;2023-07-30T00:22:09;25.19;70.97
77056;SHT30;67471;44.918;8.614;2023-07-30T00:25:13;25.15;71.17
77056;SHT30;67471;44.918;8.614;2023-07-30T00:28:17;25.12;71.12
77056;SHT30;67471;44.918;8.614;2023-07-30T00:31:21;25.06;71.41
77056;SHT30;67471;44.918;8.614;2023-07-30T00:34:25;25.19;71.08
77056;SHT30;67471;44.918;8.614;2023-07-30T00:37:29;25.16;71.26
77056;SHT30;67471;44.918;8.614;2023-07-30T00:40:33;25.09;71.56
77056;SHT30;67471;44.918;8.614;2023-07-30T00:43:38;25.04;71.35
77056;SHT30;67471;44.918;8.614;2023-07-30T00:46:41;25.08;71.14
77056;SHT30;67471;44.918;8.614;2023-07-30T00:49:45;25.09;70.95
77056;SHT30;67471;44.918;8.614;2023-07-30T00:52:49;25.15;71.25
77056;SHT30;67471;44.918;8.614;2023-07-30T00:55:53;25.02;71.44
77056;SHT30;67471;44.918;8.614;2023-07-30T00:58:57;25.11;71.07
77056;SHT30;67471;44.918;8.614;2023-07-30T01:02:02;25.11;71.30
77056;SHT30;67471;44.918;8.614;2023-07-30T01:05:06;25.13;71.84
77056;SHT30;67471;44.918;8.614;2023-07-30T01:08:10;25.09;72.48
77056;SHT30;67471;44.918;8.614;2023-07-30T01:11:14;25.08;72.69
77056;SHT30;67471;44.918;8.614;2023-07-30T01:14:19;25.11;72.65
77056;SHT30;67471;44.918;8.614;2023-07-30T01:17:23;25.02;72.10
77056;SHT30;67471;44.918;8.614;2023-07-30T01:20:31;24.98;72.29
77056;SHT30;67471;44.918;8.614;2023-07-30T01:23:35;24.98;72.54
77056;SHT30;67471;44.918;8.614;2023-07-30T01:26:40;24.92;72.95
77056;SHT30;67471;44.918;8.614;2023-07-30T01:29:52;24.91;73.18
77056;SHT30;67471;44.918;8.614;2023-07-30T01:32:58;24.88;73.19
77056;SHT30;67471;44.918;8.614;2023-07-30T01:36:01;24.88;73.46
77056;SHT30;67471;44.918;8.614;2023-07-30T01:39:05;24.84;73.43
77056;SHT30;67471;44.918;8.614;2023-07-30T01:42:11;24.78;73.79
77056;SHT30;67471;44.918;8.614;2023-07-30T01:45:15;24.76;73.91
77056;SHT30;67471;44.918;8.614;2023-07-30T01:48:18;24.75;73.67
77056;SHT30;67471;44.918;8.614;2023-07-30T01:51:21;24.82;73.90
77056;SHT30;67471;44.918;8.614;2023-07-30T01:54:26;24.74;74.21
77056;SHT30;67471;44.918;8.614;2023-07-30T01:57:29;24.63;74.92
77056;SHT30;67471;44.918;8.614;2023-07-30T02:00:32;24.61;75.04
77056;SHT30;67471;44.918;8.614;2023-07-30T02:03:40;24.67;74.92
77056;SHT30;67471;44.918;8.614;2023-07-30T02:06:44;24.53;75.22
77056;SHT30;67471;44.918;8.614;2023-07-30T02:09:48;24.37;75.60
77056;SHT30;67471;44.918;8.614;2023-07-30T02:12:51;24.44;75.47
77056;SHT30;67471;44.918;8.614;2023-07-30T02:15:55;24.50;75.41
77056;SHT30;67471;44.918;8.614;2023-07-30T02:18:58;24.50;75.31
77056;SHT30;67471;44.918;8.614;2023-07-30T02:22:02;24.57;75.04
77056;SHT30;67471;44.918;8.614;2023-07-30T02:25:06;24.44;75.53
77056;SHT30;67471;44.918;8.614;2023-07-30T02:28:10;24.43;75.36
77056;SHT30;67471;44.918;8.614;2023-07-30T02:31:14;24.33;75.23
77056;SHT30;67471;44.918;8.614;2023-07-30T02:34:17;24.28;75.09
77056;SHT30;67471;44.918;8.614;2023-07-30T02:37:21;24.18;75.17
77056;SHT30;67471;44.918;8.614;2023-07-30T02:40:25;24.02;75.77
77056;SHT30;67471;44.918;8.614;2023-07-30T02:43:28;24.00;75.73
77056;SHT30;67471;44.918;8.614;2023-07-30T02:46:31;23.99;76.03
77056;SHT30;67471;44.918;8.614;2023-07-30T02:49:34;23.99;75.93
77056;SHT30;67471;44.918;8.614;2023-07-30T02:52:38;24.03;76.02
77056;SHT30;67471;44.918;8.614;2023-07-30T02:55:41;23.95;75.99
77056;SHT30;67471;44.918;8.614;2023-07-30T02:58:45;24.02;75.70
77056;SHT30;67471;44.918;8.614;2023-07-30T03:01:48;24.10;75.28
77056;SHT30;67471;44.918;8.614;2023-07-30T03:04:51;24.12;75.29
77056;SHT30;67471;44.918;8.614;2023-07-30T03:07:55;24.03;75.78
77056;SHT30;67471;44.918;8.614;2023-07-30T03:10:59;23.99;75.98
77056;SHT30;67471;44.918;8.614;2023-07-30T03:14:02;23.95;75.87
77056;SHT30;67471;44.918;8.614;2023-07-30T03:17:07;23.97;75.69
77056;SHT30;67471;44.918;8.614;2023-07-30T03:20:10;23.97;75.65
77056;SHT30;67471;44.918;8.614;2023-07-30T03:23:15;24.03;75.43
77056;SHT30;67471;44.918;8.614;2023-07-30T03:26:18;24.06;75.36
77056;SHT30;67471;44.918;8.614;2023-07-30T03:29:22;24.07;75.35
77056;SHT30;67471;44.918;8.614;2023-07-30T03:32:26;24.02;75.69
77056;SHT30;67471;44.918;8.614;2023-07-30T03:35:29;23.96;75.75
77056;SHT30;67471;44.918;8.614;2023-07-30T03:38:32;23.86;75.98
77056;SHT30;67471;44.918;8.614;2023-07-30T03:41:36;23.79;76.04
77056;SHT30;67471;44.918;8.614;2023-07-30T03:44:39;23.83;75.94
77056;SHT30;67471;44.918;8.614;2023-07-30T03:47:43;23.67;75.60
77056;SHT30;67471;44.918;8.614;2023-07-30T03:50:46;23.46;76.11
77056;SHT30;67471;44.918;8.614;2023-07-30T03:53:50;23.08;77.53
77056;SHT30;67471;44.918;8.614;2023-07-30T03:56:54;22.91;78.53
77056;SHT30;67471;44.918;8.614;2023-07-30T03:59:57;22.84;78.84
77056;SHT30;67471;44.918;8.614;2023-07-30T04:03:03;22.81;79.03
77056;SHT30;67471;44.918;8.614;2023-07-30T04:06:07;22.93;78.55
77056;SHT30;67471;44.918;8.614;2023-07-30T04:09:11;22.88;78.72
77056;SHT30;67471;44.918;8.614;2023-07-30T04:12:15;22.93;78.53
77056;SHT30;67471;44.918;8.614;2023-07-30T04:15:19;22.87;78.93
77056;SHT30;67471;44.918;8.614;2023-07-30T04:18:22;22.93;79.03
77056;SHT30;67471;44.918;8.614;2023-07-30T04:21:26;22.90;79.13
77056;SHT30;67471;44.918;8.614;2023-07-30T04:24:29;23.03;78.52
77056;SHT30;67471;44.918;8.614;2023-07-30T04:27:33;23.04;78.54
77056;SHT30;67471;44.918;8.614;2023-07-30T04:30:37;23.11;78.42
77056;SHT30;67471;44.918;8.614;2023-07-30T04:33:40;23.04;78.90
77056;SHT30;67471;44.918;8.614;2023-07-30T04:36:45;23.15;78.05
77056;SHT30;67471;44.918;8.614;2023-07-30T04:39:49;23.29;77.35
77056;SHT30;67471;44.918;8.614;2023-07-30T04:42:53;23.37;77.13
77056;SHT30;67471;44.918;8.614;2023-07-30T04:45:57;23.29;77.39
77056;SHT30;67471;44.918;8.614;2023-07-30T04:49:02;23.32;77.34
77056;SHT30;67471;44.918;8.614;2023-07-30T04:52:08;23.45;77.07
77056;SHT30;67471;44.918;8.614;2023-07-30T04:55:12;23.42;77.23
77056;SHT30;67471;44.918;8.614;2023-07-30T04:58:16;23.49;77.27
77056;SHT30;67471;44.918;8.614;2023-07-30T05:01:20;23.54;76.97
77056;SHT30;67471;44.918;8.614;2023-07-30T05:04:23;23.65;77.10
77056;SHT30;67471;44.918;8.614;2023-07-30T05:07:27;23.58;77.20
77056;SHT30;67471;44.918;8.614;2023-07-30T05:10:30;23.69;76.76
77056;SHT30;67471;44.918;8.614;2023-07-30T05:13:33;23.80;76.27
77056;SHT30;67471;44.918;8.614;2023-07-30T05:16:37;23.85;76.13
77056;SHT30;67471;44.918;8.614;2023-07-30T05:19:41;23.80;76.24
77056;SHT30;67471;44.918;8.614;2023-07-30T05:22:44;23.77;76.31
77056;SHT30;67471;44.918;8.614;2023-07-30T05:25:48;23.90;75.70
77056;SHT30;67471;44.918;8.614;2023-07-30T05:28:51;23.87;75.65
77056;SHT30;67471;44.918;8.614;2023-07-30T05:31:54;23.87;75.87
77056;SHT30;67471;44.918;8.614;2023-07-30T05:34:58;23.93;75.71
77056;SHT30;67471;44.918;8.614;2023-07-30T05:38:02;23.83;76.00
77056;SHT30;67471;44.918;8.614;2023-07-30T05:41:06;23.96;75.76
77056;SHT30;67471;44.918;8.614;2023-07-30T05:44:09;24.03;75.60
77056;SHT30;67471;44.918;8.614;2023-07-30T05:47:12;24.16;75.22
77056;SHT30;67471;44.918;8.614;2023-07-30T05:50:15;24.27;74.94
77056;SHT30;67471;44.918;8.614;2023-07-30T05:53:19;24.47;74.47
77056;SHT30;67471;44.918;8.614;2023-07-30T05:56:22;24.55;74.17
77056;SHT30;67471;44.918;8.614;2023-07-30T05:59:25;24.68;73.89
77056;SHT30;67471;44.918;8.614;2023-07-30T06:02:29;24.91;73.41
77056;SHT30;67471;44.918;8.614;2023-07-30T06:05:32;25.06;73.03
77056;SHT30;67471;44.918;8.614;2023-07-30T06:08:36;25.25;72.43
77056;SHT30;67471;44.918;8.614;2023-07-30T06:11:39;25.49;71.76
77056;SHT30;67471;44.918;8.614;2023-07-30T06:14:43;25.57;71.58
77056;SHT30;67471;44.918;8.614;2023-07-30T06:17:46;25.53;71.68
77056;SHT30;67471;44.918;8.614;2023-07-30T06:20:50;25.59;72.02
77056;SHT30;67471;44.918;8.614;2023-07-30T06:23:53;25.87;71.21
77056;SHT30;67471;44.918;8.614;2023-07-30T06:26:56;26.57;69.53
77056;SHT30;67471;44.918;8.614;2023-07-30T06:30:00;27.64;65.45
77056;SHT30;67471;44.918;8.614;2023-07-30T06:33:03;28.46;63.26
77056;SHT30;67471;44.918;8.614;2023-07-30T06:36:07;29.32;60.57
77056;SHT30;67471;44.918;8.614;2023-07-30T06:39:11;29.77;59.35
77056;SHT30;67471;44.918;8.614;2023-07-30T06:42:15;29.69;59.37
77056;SHT30;67471;44.918;8.614;2023-07-30T06:45:18;29.69;59.56
77056;SHT30;67471;44.918;8.614;2023-07-30T06:48:21;29.49;60.26
77056;SHT30;67471;44.918;8.614;2023-07-30T06:51:25;29.04;61.26
77056;SHT30;67471;44.918;8.614;2023-07-30T06:54:29;28.54;62.80
77056;SHT30;67471;44.918;8.614;2023-07-30T06:57:32;28.12;63.90
77056;SHT30;67471;44.918;8.614;2023-07-30T07:00:35;27.93;64.66
77056;SHT30;67471;44.918;8.614;2023-07-30T07:03:38;27.75;65.09
77056;SHT30;67471;44.918;8.614;2023-07-30T07:06:42;27.69;65.53
77056;SHT30;67471;44.918;8.614;2023-07-30T07:09:45;27.58;65.80
77056;SHT30;67471;44.918;8.614;2023-07-30T07:12:48;27.47;66.04
77056;SHT30;67471;44.918;8.614;2023-07-30T07:15:53;27.33;66.56
77056;SHT30;67471;44.918;8.614;2023-07-30T07:18:56;27.50;66.31
77056;SHT30;67471;44.918;8.614;2023-07-30T07:22:00;27.80;65.53
77056;SHT30;67471;44.918;8.614;2023-07-30T07:25:03;28.02;64.58
77056;SHT30;67471;44.918;8.614;2023-07-30T07:28:06;28.35;63.39
77056;SHT30;67471;44.918;8.614;2023-07-30T07:31:10;28.47;63.31
77056;SHT30;67471;44.918;8.614;2023-07-30T07:34:13;28.47;63.21
77056;SHT30;67471;44.918;8.614;2023-07-30T07:37:17;29.04;61.43
77056;SHT30;67471;44.918;8.614;2023-07-30T07:40:21;29.70;59.60
77056;SHT30;67471;44.918;8.614;2023-07-30T07:43:25;30.13;58.27
77056;SHT30;67471;44.918;8.614;2023-07-30T07:46:28;30.21;57.85
77056;SHT30;67471;44.918;8.614;2023-07-30T07:49:32;30.24;58.06
77056;SHT30;67471;44.918;8.614;2023-07-30T07:52:35;30.71;57.10
77056;SHT30;67471;44.918;8.614;2023-07-30T07:55:38;31.23;55.64
77056;SHT30;67471;44.918;8.614;2023-07-30T07:58:41;31.47;54.79
77056;SHT30;67471;44.918;8.614;2023-07-30T08:01:46;31.73;53.95
77056;SHT30;67471;44.918;8.614;2023-07-30T08:04:49;32.19;53.30
77056;SHT30;67471;44.918;8.614;2023-07-30T08:07:53;32.55;52.45
77056;SHT30;67471;44.918;8.614;2023-07-30T08:10:56;32.77;52.00
77056;SHT30;67471;44.918;8.614;2023-07-30T08:13:59;32.91;51.95
77056;SHT30;67471;44.918;8.614;2023-07-30T08:17:03;32.91;51.29
77056;SHT30;67471;44.918;8.614;2023-07-30T08:20:07;33.34;50.37
77056;SHT30;67471;44.918;8.614;2023-07-30T08:23:11;33.43;50.33
77056;SHT30;67471;44.918;8.614;2023-07-30T08:26:14;33.62;50.11
77056;SHT30;67471;44.918;8.614;2023-07-30T08:29:18;33.33;50.63
77056;SHT30;67471;44.918;8.614;2023-07-30T08:32:21;33.21;50.74
77056;SHT30;67471;44.918;8.614;2023-07-30T08:35:25;33.54;49.52
77056;SHT30;67471;44.918;8.614;2023-07-30T08:38:30;33.92;48.42
77056;SHT30;67471;44.918;8.614;2023-07-30T08:41:33;34.04;48.21
77056;SHT30;67471;44.918;8.614;2023-07-30T08:44:36;33.71;48.72
77056;SHT30;67471;44.918;8.614;2023-07-30T08:47:40;33.54;49.09
77056;SHT30;67471;44.918;8.614;2023-07-30T08:50:44;33.76;48.63
77056;SHT30;67471;44.918;8.614;2023-07-30T08:53:48;33.94;48.10
77056;SHT30;67471;44.918;8.614;2023-07-30T08:56:52;34.52;47.23
77056;SHT30;67471;44.918;8.614;2023-07-30T09:00:14;34.91;46.01
77056;SHT30;67471;44.918;8.614;2023-07-30T09:03:18;34.83;46.03
77056;SHT30;67471;44.918;8.614;2023-07-30T09:06:22;35.08;45.97
77056;SHT30;67471;44.918;8.614;2023-07-30T09:09:26;35.04;45.12
77056;SHT30;67471;44.918;8.614;2023-07-30T09:12:32;34.80;45.83
77056;SHT30;67471;44.918;8.614;2023-07-30T09:15:36;34.63;46.25
77056;SHT30;67471;44.918;8.614;2023-07-30T09:18:46;34.86;45.82
77056;SHT30;67471;44.918;8.614;2023-07-30T09:21:49;34.87;45.68
77056;SHT30;67471;44.918;8.614;2023-07-30T09:24:53;34.79;45.89
77056;SHT30;67471;44.918;8.614;2023-07-30T09:27:57;34.71;46.12
77056;SHT30;67471;44.918;8.614;2023-07-30T09:31:06;34.64;45.94
77056;SHT30;67471;44.918;8.614;2023-07-30T09:34:10;34.56;45.98
77056;SHT30;67471;44.918;8.614;2023-07-30T09:37:13;33.71;47.62
77056;SHT30;67471;44.918;8.614;2023-07-30T09:40:16;33.35;48.24
77056;SHT30;67471;44.918;8.614;2023-07-30T09:43:27;34.02;47.20
77056;SHT30;67471;44.918;8.614;2023-07-30T09:46:31;34.63;46.19
77056;SHT30;67471;44.918;8.614;2023-07-30T09:49:35;34.59;46.08
77056;SHT30;67471;44.918;8.614;2023-07-30T09:52:38;34.43;46.12
77056;SHT30;67471;44.918;8.614;2023-07-30T09:55:43;34.39;46.39
77056;SHT30;67471;44.918;8.614;2023-07-30T09:58:46;34.23;46.54
77056;SHT30;67471;44.918;8.614;2023-07-30T10:01:50;34.61;46.07
77056;SHT30;67471;44.918;8.614;2023-07-30T10:04:56;34.77;45.21
77056;SHT30;67471;44.918;8.614;2023-07-30T10:08:01;34.42;45.81
77056;SHT30;67471;44.918;8.614;2023-07-30T10:11:06;34.93;45.00
77056;SHT30;67471;44.918;8.614;2023-07-30T10:14:11;35.19;45.22
77056;SHT30;67471;44.918;8.614;2023-07-30T10:17:14;35.44;44.61
77056;SHT30;67471;44.918;8.614;2023-07-30T10:23:26;34.84;45.66
77056;SHT30;67471;44.918;8.614;2023-07-30T10:26:31;34.22;46.36
77056;SHT30;67471;44.918;8.614;2023-07-30T10:29:34;34.35;46.29
77056;SHT30;67471;44.918;8.614;2023-07-30T10:32:40;34.50;45.92
77056;SHT30;67471;44.918;8.614;2023-07-30T10:35:44;34.39;44.97
77056;SHT30;67471;44.918;8.614;2023-07-30T10:38:49;34.15;45.49
77056;SHT30;67471;44.918;8.614;2023-07-30T10:41:56;34.53;45.82
77056;SHT30;67471;44.918;8.614;2023-07-30T10:45:00;34.86;45.71
77056;SHT30;67471;44.918;8.614;2023-07-30T10:48:03;35.13;44.79
77056;SHT30;67471;44.918;8.614;2023-07-30T10:51:08;35.31;43.44
77056;SHT30;67471;44.918;8.614;2023-07-30T10:54:11;34.80;43.73
77056;SHT30;67471;44.918;8.614;2023-07-30T10:57:16;34.25;44.77
77056;SHT30;67471;44.918;8.614;2023-07-30T11:00:19;34.59;44.48
77056;SHT30;67471;44.918;8.614;2023-07-30T11:03:26;34.88;43.75
77056;SHT30;67471;44.918;8.614;2023-07-30T11:06:32;35.18;43.81
77056;SHT30;67471;44.918;8.614;2023-07-30T11:09:35;35.46;43.02
77056;SHT30;67471;44.918;8.614;2023-07-30T11:12:39;35.54;42.85
77056;SHT30;67471;44.918;8.614;2023-07-30T11:15:45;35.25;42.88
77056;SHT30;67471;44.918;8.614;2023-07-30T11:18:49;35.56;42.32
77056;SHT30;67471;44.918;8.614;2023-07-30T11:21:53;35.54;42.16
77056;SHT30;67471;44.918;8.614;2023-07-30T11:24:57;35.37;42.44
77056;SHT30;67471;44.918;8.614;2023-07-30T11:28:00;35.28;42.30
77056;SHT30;67471;44.918;8.614;2023-07-30T11:34:10;35.61;41.95
77056;SHT30;67471;44.918;8.614;2023-07-30T11:37:14;35.55;42.16
77056;SHT30;67471;44.918;8.614;2023-07-30T11:40:18;35.23;42.53
77056;SHT30;67471;44.918;8.614;2023-07-30T11:43:22;35.23;42.77
77056;SHT30;67471;44.918;8.614;2023-07-30T11:46:25;35.46;42.22
77056;SHT30;67471;44.918;8.614;2023-07-30T11:49:29;35.69;41.58
77056;SHT30;67471;44.918;8.614;2023-07-30T11:52:32;35.72;40.79
77056;SHT30;67471;44.918;8.614;2023-07-30T11:55:39;35.69;41.03
77056;SHT30;67471;44.918;8.614;2023-07-30T11:58:43;35.85;40.88
77056;SHT30;67471;44.918;8.614;2023-07-30T12:01:46;35.82;40.83
77056;SHT30;67471;44.918;8.614;2023-07-30T12:04:50;35.94;40.65
77056;SHT30;67471;44.918;8.614;2023-07-30T12:07:53;35.56;41.14
77056;SHT30;67471;44.918;8.614;2023-07-30T12:10:56;35.13;41.53
77056;SHT30;67471;44.918;8.614;2023-07-30T12:14:05;35.23;41.62
77056;SHT30;67471;44.918;8.614;2023-07-30T12:17:09;35.37;41.55
77056;SHT30;67471;44.918;8.614;2023-07-30T12:20:13;35.34;41.45
77056;SHT30;67471;44.918;8.614;2023-07-30T12:23:16;35.25;40.96
77056;SHT30;67471;44.918;8.614;2023-07-30T12:26:19;35.46;40.83
77056;SHT30;67471;44.918;8.614;2023-07-30T12:29:24;35.66;40.58
77056;SHT30;67471;44.918;8.614;2023-07-30T12:32:27;35.76;39.96
77056;SHT30;67471;44.918;8.614;2023-07-30T12:35:32;35.79;39.43
77056;SHT30;67471;44.918;8.614;2023-07-30T12:38:36;35.62;39.59
77056;SHT30;67471;44.918;8.614;2023-07-30T12:41:39;35.39;39.98
77056;SHT30;67471;44.918;8.614;2023-07-30T12:44:43;35.48;39.85
77056;SHT30;67471;44.918;8.614;2023-07-30T12:47:47;35.35;38.44
77056;SHT30;67471;44.918;8.614;2023-07-30T12:50:50;35.11;38.80
77056;SHT30;67471;44.918;8.614;2023-07-30T12:53:53;34.87;39.33
77056;SHT30;67471;44.918;8.614;2023-07-30T12:56:57;34.87;38.76
77056;SHT30;67471;44.918;8.614;2023-07-30T13:00:00;35.21;38.47
77056;SHT30;67471;44.918;8.614;2023-07-30T13:03:03;35.32;38.19
77056;SHT30;67471;44.918;8.614;2023-07-30T13:06:06;35.38;37.62
77056;SHT30;67471;44.918;8.614;2023-07-30T13:09:10;35.61;37.35
77056;SHT30;67471;44.918;8.614;2023-07-30T13:12:13;35.68;36.40
77056;SHT30;67471;44.918;8.614;2023-07-30T13:15:16;35.42;34.40
77056;SHT30;67471;44.918;8.614;2023-07-30T13:18:19;35.01;36.14
77056;SHT30;67471;44.918;8.614;2023-07-30T13:21:23;34.79;35.86
77056;SHT30;67471;44.918;8.614;2023-07-30T13:24:26;34.68;35.89
77056;SHT30;67471;44.918;8.614;2023-07-30T13:27:33;34.84;35.31
77056;SHT30;67471;44.918;8.614;2023-07-30T13:30:36;34.97;36.39
77056;SHT30;67471;44.918;8.614;2023-07-30T13:33:40;34.61;37.25
77056;SHT30;67471;44.918;8.614;2023-07-30T13:36:43;34.83;37.18
77056;SHT30;67471;44.918;8.614;2023-07-30T13:39:46;34.73;36.65
77056;SHT30;67471;44.918;8.614;2023-07-30T13:42:53;34.63;37.06
77056;SHT30;67471;44.918;8.614;2023-07-30T13:45:56;34.59;37.13
77056;SHT30;67471;44.918;8.614;2023-07-30T13:49:01;34.80;36.77
77056;SHT30;67471;44.918;8.614;2023-07-30T13:52:05;34.70;36.86
77056;SHT30;67471;44.918;8.614;2023-07-30T13:55:08;34.68;36.78
77056;SHT30;67471;44.918;8.614;2023-07-30T13:58:11;34.93;35.75
77056;SHT30;67471;44.918;8.614;2023-07-30T14:01:14;35.04;35.62
77056;SHT30;67471;44.918;8.614;2023-07-30T14:04:18;34.98;35.00
77056;SHT30;67471;44.918;8.614;2023-07-30T14:07:22;34.98;35.21
77056;SHT30;67471;44.918;8.614;2023-07-30T14:10:25;35.03;34.85
77056;SHT30;67471;44.918;8.614;2023-07-30T14:13:30;35.00;35.28
77056;SHT30;67471;44.918;8.614;2023-07-30T14:16:33;35.13;35.29
77056;SHT30;67471;44.918;8.614;2023-07-30T14:19:37;35.14;34.64
77056;SHT30;67471;44.918;8.614;2023-07-30T14:22:40;35.05;34.43
77056;SHT30;67471;44.918;8.614;2023-07-30T14:25:44;34.98;34.24
77056;SHT30;67471;44.918;8.614;2023-07-30T14:28:47;35.07;34.11
77056;SHT30;67471;44.918;8.614;2023-07-30T14:31:52;35.19;33.94
77056;SHT30;67471;44.918;8.614;2023-07-30T14:34:56;35.19;33.89
77056;SHT30;67471;44.918;8.614;2023-07-30T14:37:59;35.38;34.46
77056;SHT30;67471;44.918;8.614;2023-07-30T14:41:02;35.55;33.53
77056;SHT30;67471;44.918;8.614;2023-07-30T14:44:06;35.75;33.48
77056;SHT30;67471;44.918;8.614;2023-07-30T14:47:09;35.83;33.32
77056;SHT30;67471;44.918;8.614;2023-07-30T14:50:13;35.88;33.31
77056;SHT30;67471;44.918;8.614;2023-07-30T14:53:20;35.97;33.21
77056;SHT30;67471;44.918;8.614;2023-07-30T14:56:23;35.99;32.91
77056;SHT30;67471;44.918;8.614;2023-07-30T14:59:26;35.97;32.42
77056;SHT30;67471;44.918;8.614;2023-07-30T15:02:30;35.89;31.59
77056;SHT30;67471;44.918;8.614;2023-07-30T15:05:33;35.65;31.90
77056;SHT30;67471;44.918;8.614;2023-07-30T15:08:37;35.13;32.33
77056;SHT30;67471;44.918;8.614;2023-07-30T15:11:40;34.98;32.91
77056;SHT30;67471;44.918;8.614;2023-07-30T15:14:43;35.03;33.14
77056;SHT30;67471;44.918;8.614;2023-07-30T15:17:46;35.07;33.58
77056;SHT30;67471;44.918;8.614;2023-07-30T15:20:49;34.86;34.20
77056;SHT30;67471;44.918;8.614;2023-07-30T15:23:52;34.87;34.41
77056;SHT30;67471;44.918;8.614;2023-07-30T15:26:56;34.67;34.78
77056;SHT30;67471;44.918;8.614;2023-07-30T15:30:00;34.71;35.44
77056;SHT30;67471;44.918;8.614;2023-07-30T15:33:03;34.87;36.53
77056;SHT30;67471;44.918;8.614;2023-07-30T15:36:09;34.73;37.78
77056;SHT30;67471;44.918;8.614;2023-07-30T15:39:13;34.08;40.66
77056;SHT30;67471;44.918;8.614;2023-07-30T15:42:16;34.22;40.44
77056;SHT30;67471;44.918;8.614;2023-07-30T15:45:19;34.23;40.39
77056;SHT30;67471;44.918;8.614;2023-07-30T15:48:23;34.22;40.87
77056;SHT30;67471;44.918;8.614;2023-07-30T15:51:26;34.20;41.53
77056;SHT30;67471;44.918;8.614;2023-07-30T15:54:32;34.31;41.22
77056;SHT30;67471;44.918;8.614;2023-07-30T15:57:36;34.37;40.93
77056;SHT30;67471;44.918;8.614;2023-07-30T16:00:39;33.98;42.14
77056;SHT30;67471;44.918;8.614;2023-07-30T16:03:43;33.95;42.31
77056;SHT30;67471;44.918;8.614;2023-07-30T16:06:46;34.06;42.21
77056;SHT30;67471;44.918;8.614;2023-07-30T16:09:49;33.91;42.46
77056;SHT30;67471;44.918;8.614;2023-07-30T16:12:53;33.96;42.19
77056;SHT30;67471;44.918;8.614;2023-07-30T16:15:56;34.01;42.05
77056;SHT30;67471;44.918;8.614;2023-07-30T16:19:09;33.79;42.62
77056;SHT30;67471;44.918;8.614;2023-07-30T16:22:16;33.82;42.55
77056;SHT30;67471;44.918;8.614;2023-07-30T16:25:19;33.84;42.43
77056;SHT30;67471;44.918;8.614;2023-07-30T16:28:23;33.88;42.00
77056;SHT30;67471;44.918;8.614;2023-07-30T16:31:27;33.89;41.77
77056;SHT30;67471;44.918;8.614;2023-07-30T16:34:30;33.81;41.81
77056;SHT30;67471;44.918;8.614;2023-07-30T16:37:34;33.76;42.15
77056;SHT30;67471;44.918;8.614;2023-07-30T16:40:37;33.41;42.55
77056;SHT30;67471;44.918;8.614;2023-07-30T16:43:40;33.26;42.76
77056;SHT30;67471;44.918;8.614;2023-07-30T16:46:44;33.30;43.14
77056;SHT30;67471;44.918;8.614;2023-07-30T16:49:48;33.23;43.65
77056;SHT30;67471;44.918;8.614;2023-07-30T16:52:51;33.07;43.59
77056;SHT30;67471;44.918;8.614;2023-07-30T16:55:54;33.00;43.72
77056;SHT30;67471;44.918;8.614;2023-07-30T16:58:59;32.77;44.31
77056;SHT30;67471;44.918;8.614;2023-07-30T17:02:02;32.56;44.47
77056;SHT30;67471;44.918;8.614;2023-07-30T17:05:06;32.53;44.51
77056;SHT30;67471;44.918;8.614;2023-07-30T17:08:10;32.48;44.63
77056;SHT30;67471;44.918;8.614;2023-07-30T17:11:16;32.45;44.32
77056;SHT30;67471;44.918;8.614;2023-07-30T17:14:19;32.31;44.05
77056;SHT30;67471;44.918;8.614;2023-07-30T17:17:22;32.32;43.85
77056;SHT30;67471;44.918;8.614;2023-07-30T17:20:26;32.27;43.96
77056;SHT30;67471;44.918;8.614;2023-07-30T17:23:29;32.22;43.95
77056;SHT30;67471;44.918;8.614;2023-07-30T17:26:33;32.07;44.49
77056;SHT30;67471;44.918;8.614;2023-07-30T17:29:36;32.00;44.63
77056;SHT30;67471;44.918;8.614;2023-07-30T17:32:39;31.82;45.00
77056;SHT30;67471;44.918;8.614;2023-07-30T17:35:42;31.81;45.32
77056;SHT30;67471;44.918;8.614;2023-07-30T17:38:46;31.67;45.82
77056;SHT30;67471;44.918;8.614;2023-07-30T17:41:49;31.53;45.93
77056;SHT30;67471;44.918;8.614;2023-07-30T17:44:52;31.64;44.99
77056;SHT30;67471;44.918;8.614;2023-07-30T17:47:56;31.51;44.83
77056;SHT30;67471;44.918;8.614;2023-07-30T17:50:59;31.50;44.62
77056;SHT30;67471;44.918;8.614;2023-07-30T17:54:03;31.34;44.74
77056;SHT30;67471;44.918;8.614;2023-07-30T17:57:06;31.19;44.94
77056;SHT30;67471;44.918;8.614;2023-07-30T18:00:09;31.15;45.07
77056;SHT30;67471;44.918;8.614;2023-07-30T18:03:18;31.15;44.87
77056;SHT30;67471;44.918;8.614;2023-07-30T18:06:22;30.95;45.21
77056;SHT30;67471;44.918;8.614;2023-07-30T18:09:26;30.98;45.47
77056;SHT30;67471;44.918;8.614;2023-07-30T18:12:29;30.95;45.83
77056;SHT30;67471;44.918;8.614;2023-07-30T18:15:32;30.88;46.36
77056;SHT30;67471;44.918;8.614;2023-07-30T18:18:36;30.86;46.43
77056;SHT30;67471;44.918;8.614;2023-07-30T18:21:40;30.83;46.75
77056;SHT30;67471;44.918;8.614;2023-07-30T18:24:43;30.68;47.25
77056;SHT30;67471;44.918;8.614;2023-07-30T18:27:46;30.42;47.75
77056;SHT30;67471;44.918;8.614;2023-07-30T18:30:49;30.44;47.69
77056;SHT30;67471;44.918;8.614;2023-07-30T18:33:53;30.38;47.82
77056;SHT30;67471;44.918;8.614;2023-07-30T18:36:56;30.38;47.88
77056;SHT30;67471;44.918;8.614;2023-07-30T18:39:59;30.30;48.18
77056;SHT30;67471;44.918;8.614;2023-07-30T18:43:04;30.24;48.14
77056;SHT30;67471;44.918;8.614;2023-07-30T18:46:07;30.13;48.42
77056;SHT30;67471;44.918;8.614;2023-07-30T18:49:11;30.16;48.54
77056;SHT30;67471;44.918;8.614;2023-07-30T18:52:14;30.16;48.67
77056;SHT30;67471;44.918;8.614;2023-07-30T18:55:17;30.00;49.15
77056;SHT30;67471;44.918;8.614;2023-07-30T18:58:20;30.11;49.04
77056;SHT30;67471;44.918;8.614;2023-07-30T19:01:23;30.09;49.43
77056;SHT30;67471;44.918;8.614;2023-07-30T19:04:28;30.07;49.60
77056;SHT30;67471;44.918;8.614;2023-07-30T19:07:32;29.91;50.02
77056;SHT30;67471;44.918;8.614;2023-07-30T19:10:35;29.91;50.08
77056;SHT30;67471;44.918;8.614;2023-07-30T19:13:38;29.89;50.16
77056;SHT30;67471;44.918;8.614;2023-07-30T19:16:42;29.80;50.38
77056;SHT30;67471;44.918;8.614;2023-07-30T19:19:47;29.76;50.44
77056;SHT30;67471;44.918;8.614;2023-07-30T19:22:50;29.74;50.41
77056;SHT30;67471;44.918;8.614;2023-07-30T19:25:53;29.69;50.54